Terminal Aerodrome Forecast
Issued by NWS Bismarck, ND

Home | Current Version | Previous Version | Graphics & Text | Print | Product List | Glossary On
Versions: 1 2 3 4 5 6 7 8 9 10 11 12
000
FTUS43 KBIS 142300
TAFISN
TAF
KISN 142323Z 1500/1524 VRB03KT P6SM BKN080
     FM150300 23002KT P6SM SKC
     FM151500 23006KT P6SM FEW070=

USA.gov is the U.S. government's official web portal to all federal, state and local government web resources and services.